sensor_id;sensor_type;location;lat;lon;timestamp;P1;durP1;ratioP1;P2;durP2;ratioP2
32032;SDS011;31720;52.638;9.216;2023-11-21T00:01:41;14.95;;;4.47;;
32032;SDS011;31720;52.638;9.216;2023-11-21T00:04:43;14.50;;;5.13;;
32032;SDS011;31720;52.638;9.216;2023-11-21T00:07:45;19.52;;;5.25;;
32032;SDS011;31720;52.638;9.216;2023-11-21T00:10:47;12.00;;;4.70;;
32032;SDS011;31720;52.638;9.216;2023-11-21T00:13:49;22.23;;;5.18;;
32032;SDS011;31720;52.638;9.216;2023-11-21T00:16:50;14.13;;;4.65;;
32032;SDS011;31720;52.638;9.216;2023-11-21T00:19:53;9.85;;;4.55;;
32032;SDS011;31720;52.638;9.216;2023-11-21T00:22:54;19.80;;;4.72;;
32032;SDS011;31720;52.638;9.216;2023-11-21T00:25:56;19.67;;;4.32;;
32032;SDS011;31720;52.638;9.216;2023-11-21T00:28:57;18.92;;;4.47;;
32032;SDS011;31720;52.638;9.216;2023-11-21T00:31:59;16.95;;;6.07;;
32032;SDS011;31720;52.638;9.216;2023-11-21T00:35:02;17.08;;;5.90;;
32032;SDS011;31720;52.638;9.216;2023-11-21T00:38:04;11.40;;;4.72;;
32032;SDS011;31720;52.638;9.216;2023-11-21T00:41:06;21.48;;;5.93;;
32032;SDS011;31720;52.638;9.216;2023-11-21T00:44:07;19.88;;;6.32;;
32032;SDS011;31720;52.638;9.216;2023-11-21T00:47:09;12.70;;;5.47;;
32032;SDS011;31720;52.638;9.216;2023-11-21T00:50:11;11.50;;;4.82;;
32032;SDS011;31720;52.638;9.216;2023-11-21T00:53:13;13.10;;;5.68;;
32032;SDS011;31720;52.638;9.216;2023-11-21T00:56:14;16.38;;;5.38;;
32032;SDS011;31720;52.638;9.216;2023-11-21T00:59:16;18.40;;;5.80;;
32032;SDS011;31720;52.638;9.216;2023-11-21T01:02:17;18.55;;;5.63;;
32032;SDS011;31720;52.638;9.216;2023-11-21T01:05:20;16.05;;;5.10;;
32032;SDS011;31720;52.638;9.216;2023-11-21T01:08:22;26.08;;;6.47;;
32032;SDS011;31720;52.638;9.216;2023-11-21T01:11:24;23.98;;;6.82;;
32032;SDS011;31720;52.638;9.216;2023-11-21T01:14:26;23.83;;;6.68;;
32032;SDS011;31720;52.638;9.216;2023-11-21T01:17:28;18.13;;;6.38;;
32032;SDS011;31720;52.638;9.216;2023-11-21T01:20:31;26.65;;;6.53;;
32032;SDS011;31720;52.638;9.216;2023-11-21T01:23:32;23.40;;;7.28;;
32032;SDS011;31720;52.638;9.216;2023-11-21T01:26:34;14.93;;;6.60;;
32032;SDS011;31720;52.638;9.216;2023-11-21T01:29:35;17.35;;;6.45;;
32032;SDS011;31720;52.638;9.216;2023-11-21T01:32:36;21.23;;;6.30;;
32032;SDS011;31720;52.638;9.216;2023-11-21T01:35:40;14.18;;;6.93;;
32032;SDS011;31720;52.638;9.216;2023-11-21T01:38:41;24.50;;;7.03;;
32032;SDS011;31720;52.638;9.216;2023-11-21T01:41:43;21.77;;;6.97;;
32032;SDS011;31720;52.638;9.216;2023-11-21T01:44:45;19.38;;;8.20;;
32032;SDS011;31720;52.638;9.216;2023-11-21T01:47:46;18.00;;;7.10;;
32032;SDS011;31720;52.638;9.216;2023-11-21T01:50:49;25.17;;;8.15;;
32032;SDS011;31720;52.638;9.216;2023-11-21T01:53:52;21.83;;;7.30;;
32032;SDS011;31720;52.638;9.216;2023-11-21T01:56:54;15.52;;;6.97;;
32032;SDS011;31720;52.638;9.216;2023-11-21T01:59:55;19.35;;;6.60;;
32032;SDS011;31720;52.638;9.216;2023-11-21T02:02:59;26.65;;;7.43;;
32032;SDS011;31720;52.638;9.216;2023-11-21T02:06:01;23.40;;;7.82;;
32032;SDS011;31720;52.638;9.216;2023-11-21T02:09:03;21.00;;;7.30;;
32032;SDS011;31720;52.638;9.216;2023-11-21T02:12:05;24.95;;;9.10;;
32032;SDS011;31720;52.638;9.216;2023-11-21T02:15:09;20.95;;;7.65;;
32032;SDS011;31720;52.638;9.216;2023-11-21T02:18:15;28.45;;;8.40;;
32032;SDS011;31720;52.638;9.216;2023-11-21T02:21:17;35.97;;;8.13;;
32032;SDS011;31720;52.638;9.216;2023-11-21T02:24:21;22.40;;;7.97;;
32032;SDS011;31720;52.638;9.216;2023-11-21T02:27:23;25.88;;;7.95;;
32032;SDS011;31720;52.638;9.216;2023-11-21T02:30:27;27.52;;;7.93;;
32032;SDS011;31720;52.638;9.216;2023-11-21T02:33:28;22.40;;;8.48;;
32032;SDS011;31720;52.638;9.216;2023-11-21T02:36:30;21.90;;;8.80;;
32032;SDS011;31720;52.638;9.216;2023-11-21T02:39:33;27.83;;;8.60;;
32032;SDS011;31720;52.638;9.216;2023-11-21T02:42:34;21.48;;;8.05;;
32032;SDS011;31720;52.638;9.216;2023-11-21T02:45:35;25.55;;;8.15;;
32032;SDS011;31720;52.638;9.216;2023-11-21T02:48:37;25.80;;;10.13;;
32032;SDS011;31720;52.638;9.216;2023-11-21T02:51:38;26.77;;;8.60;;
32032;SDS011;31720;52.638;9.216;2023-11-21T02:54:41;31.42;;;10.27;;
32032;SDS011;31720;52.638;9.216;2023-11-21T02:57:42;27.77;;;9.30;;
32032;SDS011;31720;52.638;9.216;2023-11-21T03:00:44;24.90;;;10.02;;
32032;SDS011;31720;52.638;9.216;2023-11-21T03:03:46;25.60;;;9.48;;
32032;SDS011;31720;52.638;9.216;2023-11-21T03:06:51;25.58;;;9.43;;
32032;SDS011;31720;52.638;9.216;2023-11-21T03:09:53;32.67;;;10.77;;
32032;SDS011;31720;52.638;9.216;2023-11-21T03:12:55;33.28;;;9.48;;
32032;SDS011;31720;52.638;9.216;2023-11-21T03:15:57;23.15;;;9.63;;
32032;SDS011;31720;52.638;9.216;2023-11-21T03:18:58;32.67;;;10.05;;
32032;SDS011;31720;52.638;9.216;2023-11-21T03:22:00;30.90;;;10.27;;
32032;SDS011;31720;52.638;9.216;2023-11-21T03:25:03;32.22;;;9.93;;
32032;SDS011;31720;52.638;9.216;2023-11-21T03:28:05;29.13;;;11.20;;
32032;SDS011;31720;52.638;9.216;2023-11-21T03:31:08;30.20;;;9.68;;
32032;SDS011;31720;52.638;9.216;2023-11-21T03:34:14;34.05;;;10.45;;
32032;SDS011;31720;52.638;9.216;2023-11-21T03:37:16;25.10;;;10.20;;
32032;SDS011;31720;52.638;9.216;2023-11-21T03:40:20;29.00;;;10.18;;
32032;SDS011;31720;52.638;9.216;2023-11-21T03:43:22;31.17;;;10.68;;
32032;SDS011;31720;52.638;9.216;2023-11-21T03:46:24;30.30;;;10.27;;
32032;SDS011;31720;52.638;9.216;2023-11-21T03:49:26;37.38;;;11.23;;
32032;SDS011;31720;52.638;9.216;2023-11-21T03:52:29;28.45;;;10.57;;
32032;SDS011;31720;52.638;9.216;2023-11-21T03:55:32;22.88;;;9.57;;
32032;SDS011;31720;52.638;9.216;2023-11-21T03:58:33;21.70;;;9.63;;
32032;SDS011;31720;52.638;9.216;2023-11-21T04:01:35;28.13;;;10.50;;
32032;SDS011;31720;52.638;9.216;2023-11-21T04:04:36;25.65;;;10.07;;
32032;SDS011;31720;52.638;9.216;2023-11-21T04:07:38;29.05;;;10.27;;
32032;SDS011;31720;52.638;9.216;2023-11-21T04:10:40;32.78;;;11.80;;
32032;SDS011;31720;52.638;9.216;2023-11-21T04:13:42;29.20;;;9.80;;
32032;SDS011;31720;52.638;9.216;2023-11-21T04:16:44;25.95;;;10.82;;
32032;SDS011;31720;52.638;9.216;2023-11-21T04:19:45;29.60;;;11.85;;
32032;SDS011;31720;52.638;9.216;2023-11-21T04:22:47;35.58;;;12.13;;
32032;SDS011;31720;52.638;9.216;2023-11-21T04:25:50;33.60;;;11.15;;
32032;SDS011;31720;52.638;9.216;2023-11-21T04:28:52;31.80;;;12.88;;
32032;SDS011;31720;52.638;9.216;2023-11-21T04:31:54;34.28;;;13.05;;
32032;SDS011;31720;52.638;9.216;2023-11-21T04:34:56;31.40;;;12.20;;
32032;SDS011;31720;52.638;9.216;2023-11-21T04:37:57;32.58;;;11.55;;
32032;SDS011;31720;52.638;9.216;2023-11-21T04:41:00;35.15;;;13.05;;
32032;SDS011;31720;52.638;9.216;2023-11-21T04:44:02;32.42;;;12.38;;
32032;SDS011;31720;52.638;9.216;2023-11-21T04:47:03;28.88;;;12.63;;
32032;SDS011;31720;52.638;9.216;2023-11-21T04:50:05;33.92;;;13.30;;
32032;SDS011;31720;52.638;9.216;2023-11-21T04:53:07;34.65;;;12.20;;
32032;SDS011;31720;52.638;9.216;2023-11-21T04:56:10;30.20;;;11.30;;
32032;SDS011;31720;52.638;9.216;2023-11-21T04:59:11;28.92;;;12.05;;
32032;SDS011;31720;52.638;9.216;2023-11-21T05:02:12;42.53;;;13.55;;
32032;SDS011;31720;52.638;9.216;2023-11-21T05:05:14;35.20;;;13.52;;
32032;SDS011;31720;52.638;9.216;2023-11-21T05:08:16;28.98;;;10.80;;
32032;SDS011;31720;52.638;9.216;2023-11-21T05:11:26;38.33;;;12.15;;
32032;SDS011;31720;52.638;9.216;2023-11-21T05:14:28;31.77;;;12.65;;
32032;SDS011;31720;52.638;9.216;2023-11-21T05:17:30;29.73;;;11.35;;
32032;SDS011;31720;52.638;9.216;2023-11-21T05:20:32;34.03;;;11.82;;
32032;SDS011;31720;52.638;9.216;2023-11-21T05:23:33;37.08;;;14.20;;
32032;SDS011;31720;52.638;9.216;2023-11-21T05:26:36;33.38;;;12.25;;
32032;SDS011;31720;52.638;9.216;2023-11-21T05:29:38;35.33;;;11.77;;
32032;SDS011;31720;52.638;9.216;2023-11-21T05:32:40;23.73;;;9.45;;
32032;SDS011;31720;52.638;9.216;2023-11-21T05:35:43;23.05;;;9.48;;
32032;SDS011;31720;52.638;9.216;2023-11-21T05:38:44;19.55;;;8.43;;
32032;SDS011;31720;52.638;9.216;2023-11-21T05:41:47;17.25;;;6.72;;
32032;SDS011;31720;52.638;9.216;2023-11-21T05:44:48;12.85;;;4.85;;
32032;SDS011;31720;52.638;9.216;2023-11-21T05:47:50;10.07;;;4.22;;
32032;SDS011;31720;52.638;9.216;2023-11-21T05:50:51;6.32;;;3.17;;
32032;SDS011;31720;52.638;9.216;2023-11-21T05:53:53;5.18;;;2.58;;
32032;SDS011;31720;52.638;9.216;2023-11-21T05:56:55;3.28;;;2.08;;
32032;SDS011;31720;52.638;9.216;2023-11-21T05:59:57;7.85;;;2.20;;
32032;SDS011;31720;52.638;9.216;2023-11-21T06:02:59;3.80;;;2.45;;
32032;SDS011;31720;52.638;9.216;2023-11-21T06:06:01;3.17;;;2.17;;
32032;SDS011;31720;52.638;9.216;2023-11-21T06:09:02;3.53;;;2.20;;
32032;SDS011;31720;52.638;9.216;2023-11-21T06:12:07;1.50;;;1.17;;
32032;SDS011;31720;52.638;9.216;2023-11-21T06:15:09;5.95;;;2.60;;
32032;SDS011;31720;52.638;9.216;2023-11-21T06:18:13;4.40;;;1.80;;
32032;SDS011;31720;52.638;9.216;2023-11-21T06:21:14;7.25;;;2.83;;
32032;SDS011;31720;52.638;9.216;2023-11-21T06:24:16;1.63;;;1.25;;
32032;SDS011;31720;52.638;9.216;2023-11-21T06:27:19;3.60;;;1.52;;
32032;SDS011;31720;52.638;9.216;2023-11-21T06:30:21;4.90;;;2.05;;
32032;SDS011;31720;52.638;9.216;2023-11-21T06:33:23;2.97;;;2.00;;
32032;SDS011;31720;52.638;9.216;2023-11-21T06:36:27;2.88;;;1.50;;
32032;SDS011;31720;52.638;9.216;2023-11-21T06:39:28;6.93;;;1.60;;
32032;SDS011;31720;52.638;9.216;2023-11-21T06:42:31;1.63;;;1.20;;
32032;SDS011;31720;52.638;9.216;2023-11-21T06:45:33;2.00;;;1.40;;
32032;SDS011;31720;52.638;9.216;2023-11-21T06:48:35;3.10;;;1.33;;
32032;SDS011;31720;52.638;9.216;2023-11-21T06:51:38;2.13;;;1.38;;
32032;SDS011;31720;52.638;9.216;2023-11-21T06:54:39;2.08;;;1.42;;
32032;SDS011;31720;52.638;9.216;2023-11-21T06:57:42;4.20;;;1.70;;
32032;SDS011;31720;52.638;9.216;2023-11-21T07:00:44;2.83;;;1.23;;
32032;SDS011;31720;52.638;9.216;2023-11-21T07:03:48;4.57;;;2.15;;
32032;SDS011;31720;52.638;9.216;2023-11-21T07:06:50;3.85;;;2.20;;
32032;SDS011;31720;52.638;9.216;2023-11-21T07:09:51;5.10;;;2.50;;
32032;SDS011;31720;52.638;9.216;2023-11-21T07:12:54;6.18;;;3.40;;
32032;SDS011;31720;52.638;9.216;2023-11-21T07:15:57;5.03;;;2.45;;
32032;SDS011;31720;52.638;9.216;2023-11-21T07:18:59;5.78;;;3.13;;
32032;SDS011;31720;52.638;9.216;2023-11-21T07:22:00;4.68;;;2.75;;
32032;SDS011;31720;52.638;9.216;2023-11-21T07:25:01;4.20;;;2.67;;
32032;SDS011;31720;52.638;9.216;2023-11-21T07:28:04;4.25;;;2.50;;
32032;SDS011;31720;52.638;9.216;2023-11-21T07:31:06;4.22;;;2.40;;
32032;SDS011;31720;52.638;9.216;2023-11-21T07:34:07;5.07;;;3.28;;
32032;SDS011;31720;52.638;9.216;2023-11-21T07:37:09;6.38;;;3.22;;
32032;SDS011;31720;52.638;9.216;2023-11-21T07:40:11;6.88;;;3.53;;
32032;SDS011;31720;52.638;9.216;2023-11-21T07:43:14;7.22;;;3.22;;
32032;SDS011;31720;52.638;9.216;2023-11-21T07:46:16;8.45;;;3.80;;
32032;SDS011;31720;52.638;9.216;2023-11-21T07:49:18;6.65;;;3.42;;
32032;SDS011;31720;52.638;9.216;2023-11-21T07:52:21;7.03;;;3.67;;
32032;SDS011;31720;52.638;9.216;2023-11-21T07:55:22;10.43;;;4.45;;
32032;SDS011;31720;52.638;9.216;2023-11-21T07:58:26;10.25;;;4.30;;
32032;SDS011;31720;52.638;9.216;2023-11-21T08:01:27;9.20;;;4.07;;
32032;SDS011;31720;52.638;9.216;2023-11-21T08:04:29;12.32;;;4.72;;
32032;SDS011;31720;52.638;9.216;2023-11-21T08:07:33;8.57;;;4.30;;
32032;SDS011;31720;52.638;9.216;2023-11-21T08:10:34;6.22;;;3.80;;
32032;SDS011;31720;52.638;9.216;2023-11-21T08:13:37;7.47;;;4.20;;
32032;SDS011;31720;52.638;9.216;2023-11-21T08:16:39;7.18;;;4.15;;
32032;SDS011;31720;52.638;9.216;2023-11-21T08:19:40;10.45;;;4.25;;
32032;SDS011;31720;52.638;9.216;2023-11-21T08:22:42;8.25;;;4.85;;
32032;SDS011;31720;52.638;9.216;2023-11-21T08:25:43;7.63;;;4.55;;
32032;SDS011;31720;52.638;9.216;2023-11-21T08:28:47;7.60;;;4.57;;
32032;SDS011;31720;52.638;9.216;2023-11-21T08:31:48;11.77;;;5.22;;
32032;SDS011;31720;52.638;9.216;2023-11-21T08:34:50;14.27;;;5.15;;
32032;SDS011;31720;52.638;9.216;2023-11-21T08:37:51;9.98;;;5.30;;
32032;SDS011;31720;52.638;9.216;2023-11-21T08:40:53;13.07;;;5.55;;
32032;SDS011;31720;52.638;9.216;2023-11-21T08:43:56;10.02;;;5.15;;
32032;SDS011;31720;52.638;9.216;2023-11-21T08:46:58;8.15;;;4.55;;
32032;SDS011;31720;52.638;9.216;2023-11-21T08:49:59;12.10;;;6.00;;
32032;SDS011;31720;52.638;9.216;2023-11-21T08:53:01;9.75;;;5.65;;
32032;SDS011;31720;52.638;9.216;2023-11-21T08:56:02;14.15;;;8.10;;
32032;SDS011;31720;52.638;9.216;2023-11-21T08:59:06;10.57;;;5.93;;
32032;SDS011;31720;52.638;9.216;2023-11-21T09:02:07;8.90;;;4.82;;
32032;SDS011;31720;52.638;9.216;2023-11-21T09:05:09;8.93;;;5.25;;
32032;SDS011;31720;52.638;9.216;2023-11-21T09:08:12;12.18;;;5.55;;
32032;SDS011;31720;52.638;9.216;2023-11-21T09:11:13;12.43;;;5.50;;
32032;SDS011;31720;52.638;9.216;2023-11-21T09:14:16;9.25;;;4.43;;
32032;SDS011;31720;52.638;9.216;2023-11-21T09:17:18;10.25;;;4.97;;
32032;SDS011;31720;52.638;9.216;2023-11-21T09:20:19;11.40;;;5.68;;
32032;SDS011;31720;52.638;9.216;2023-11-21T09:23:22;11.43;;;5.45;;
32032;SDS011;31720;52.638;9.216;2023-11-21T09:26:24;8.82;;;4.75;;
32032;SDS011;31720;52.638;9.216;2023-11-21T09:29:27;7.80;;;4.47;;
32032;SDS011;31720;52.638;9.216;2023-11-21T09:32:29;9.63;;;4.88;;
32032;SDS011;31720;52.638;9.216;2023-11-21T09:35:30;8.00;;;4.65;;
32032;SDS011;31720;52.638;9.216;2023-11-21T09:38:32;9.15;;;4.72;;
32032;SDS011;31720;52.638;9.216;2023-11-21T09:41:37;11.35;;;4.90;;
32032;SDS011;31720;52.638;9.216;2023-11-21T09:44:48;12.38;;;5.70;;
32032;SDS011;31720;52.638;9.216;2023-11-21T09:47:56;12.43;;;5.03;;
32032;SDS011;31720;52.638;9.216;2023-11-21T09:50:58;7.43;;;4.07;;
32032;SDS011;31720;52.638;9.216;2023-11-21T09:54:01;13.90;;;5.00;;
32032;SDS011;31720;52.638;9.216;2023-11-21T09:57:06;10.93;;;4.90;;
32032;SDS011;31720;52.638;9.216;2023-11-21T10:00:11;8.88;;;4.18;;
32032;SDS011;31720;52.638;9.216;2023-11-21T10:03:17;10.55;;;4.60;;
32032;SDS011;31720;52.638;9.216;2023-11-21T10:06:19;11.02;;;4.80;;
32032;SDS011;31720;52.638;9.216;2023-11-21T10:09:20;9.52;;;4.40;;
32032;SDS011;31720;52.638;9.216;2023-11-21T10:12:22;10.48;;;5.05;;
32032;SDS011;31720;52.638;9.216;2023-11-21T10:15:27;8.52;;;4.43;;
32032;SDS011;31720;52.638;9.216;2023-11-21T10:18:28;8.88;;;4.30;;
32032;SDS011;31720;52.638;9.216;2023-11-21T10:21:30;9.25;;;4.63;;
32032;SDS011;31720;52.638;9.216;2023-11-21T10:24:33;9.68;;;4.35;;
32032;SDS011;31720;52.638;9.216;2023-11-21T10:27:34;11.45;;;4.57;;
32032;SDS011;31720;52.638;9.216;2023-11-21T10:30:38;7.78;;;4.07;;
32032;SDS011;31720;52.638;9.216;2023-11-21T10:33:40;8.65;;;4.28;;
32032;SDS011;31720;52.638;9.216;2023-11-21T10:36:41;8.32;;;4.30;;
32032;SDS011;31720;52.638;9.216;2023-11-21T10:39:43;7.03;;;3.83;;
32032;SDS011;31720;52.638;9.216;2023-11-21T10:42:45;9.82;;;4.25;;
32032;SDS011;31720;52.638;9.216;2023-11-21T10:45:48;7.57;;;4.40;;
32032;SDS011;31720;52.638;9.216;2023-11-21T10:48:51;9.57;;;4.30;;
32032;SDS011;31720;52.638;9.216;2023-11-21T10:51:54;9.18;;;4.32;;
32032;SDS011;31720;52.638;9.216;2023-11-21T10:54:55;10.23;;;4.70;;
32032;SDS011;31720;52.638;9.216;2023-11-21T10:57:59;7.68;;;3.70;;
32032;SDS011;31720;52.638;9.216;2023-11-21T11:01:06;9.07;;;5.55;;
32032;SDS011;31720;52.638;9.216;2023-11-21T11:04:07;8.00;;;4.05;;
32032;SDS011;31720;52.638;9.216;2023-11-21T11:07:16;9.83;;;4.53;;
32032;SDS011;31720;52.638;9.216;2023-11-21T11:10:18;7.97;;;4.30;;
32032;SDS011;31720;52.638;9.216;2023-11-21T11:13:22;6.30;;;3.70;;
32032;SDS011;31720;52.638;9.216;2023-11-21T11:16:25;11.85;;;4.88;;
32032;SDS011;31720;52.638;9.216;2023-11-21T11:19:29;12.85;;;3.78;;
32032;SDS011;31720;52.638;9.216;2023-11-21T11:22:36;7.25;;;3.78;;
32032;SDS011;31720;52.638;9.216;2023-11-21T11:25:46;12.30;;;4.80;;
32032;SDS011;31720;52.638;9.216;2023-11-21T11:28:57;8.73;;;4.18;;
32032;SDS011;31720;52.638;9.216;2023-11-21T11:32:10;6.80;;;3.45;;
32032;SDS011;31720;52.638;9.216;2023-11-21T11:35:22;8.18;;;3.95;;
32032;SDS011;31720;52.638;9.216;2023-11-21T11:38:31;6.72;;;3.22;;
32032;SDS011;31720;52.638;9.216;2023-11-21T11:41:35;7.85;;;4.10;;
32032;SDS011;31720;52.638;9.216;2023-11-21T11:44:47;6.90;;;4.05;;
32032;SDS011;31720;52.638;9.216;2023-11-21T11:47:56;9.00;;;4.18;;
32032;SDS011;31720;52.638;9.216;2023-11-21T11:51:01;6.50;;;4.20;;
32032;SDS011;31720;52.638;9.216;2023-11-21T11:54:05;6.38;;;3.67;;
32032;SDS011;31720;52.638;9.216;2023-11-21T11:57:07;8.85;;;3.50;;
32032;SDS011;31720;52.638;9.216;2023-11-21T12:00:15;7.50;;;3.72;;
32032;SDS011;31720;52.638;9.216;2023-11-21T12:03:20;10.60;;;3.75;;
32032;SDS011;31720;52.638;9.216;2023-11-21T12:06:30;7.53;;;4.05;;
32032;SDS011;31720;52.638;9.216;2023-11-21T12:09:34;6.80;;;3.75;;
32032;SDS011;31720;52.638;9.216;2023-11-21T12:12:41;7.30;;;4.28;;
32032;SDS011;31720;52.638;9.216;2023-11-21T12:15:43;7.60;;;4.20;;
32032;SDS011;31720;52.638;9.216;2023-11-21T12:18:47;7.50;;;3.72;;
32032;SDS011;31720;52.638;9.216;2023-11-21T12:21:48;8.07;;;4.00;;
32032;SDS011;31720;52.638;9.216;2023-11-21T12:24:50;9.45;;;3.85;;
32032;SDS011;31720;52.638;9.216;2023-11-21T12:27:52;8.43;;;4.10;;
32032;SDS011;31720;52.638;9.216;2023-11-21T12:30:54;6.75;;;4.05;;
32032;SDS011;31720;52.638;9.216;2023-11-21T12:33:58;7.53;;;3.72;;
32032;SDS011;31720;52.638;9.216;2023-11-21T12:37:00;6.32;;;3.72;;
32032;SDS011;31720;52.638;9.216;2023-11-21T12:40:01;6.55;;;4.07;;
32032;SDS011;31720;52.638;9.216;2023-11-21T12:43:03;9.52;;;3.75;;
32032;SDS011;31720;52.638;9.216;2023-11-21T12:46:05;7.07;;;3.90;;
32032;SDS011;31720;52.638;9.216;2023-11-21T12:49:08;7.88;;;3.90;;
32032;SDS011;31720;52.638;9.216;2023-11-21T12:52:17;8.18;;;4.45;;
32032;SDS011;31720;52.638;9.216;2023-11-21T12:55:19;8.85;;;3.58;;
32032;SDS011;31720;52.638;9.216;2023-11-21T12:58:21;8.20;;;3.75;;
32032;SDS011;31720;52.638;9.216;2023-11-21T13:01:25;9.00;;;4.20;;
32032;SDS011;31720;52.638;9.216;2023-11-21T13:04:32;7.07;;;3.55;;
32032;SDS011;31720;52.638;9.216;2023-11-21T13:07:40;7.57;;;3.70;;
32032;SDS011;31720;52.638;9.216;2023-11-21T13:10:48;5.90;;;3.40;;
32032;SDS011;31720;52.638;9.216;2023-11-21T13:13:52;7.10;;;3.90;;
32032;SDS011;31720;52.638;9.216;2023-11-21T13:16:54;7.75;;;3.58;;
32032;SDS011;31720;52.638;9.216;2023-11-21T13:19:57;7.15;;;3.83;;
32032;SDS011;31720;52.638;9.216;2023-11-21T13:22:58;6.22;;;3.60;;
32032;SDS011;31720;52.638;9.216;2023-11-21T13:26:01;4.82;;;3.13;;
32032;SDS011;31720;52.638;9.216;2023-11-21T13:29:04;6.47;;;3.13;;
32032;SDS011;31720;52.638;9.216;2023-11-21T13:32:05;5.65;;;3.15;;
32032;SDS011;31720;52.638;9.216;2023-11-21T13:35:13;4.70;;;2.53;;
32032;SDS011;31720;52.638;9.216;2023-11-21T13:41:22;5.38;;;3.00;;
32032;SDS011;31720;52.638;9.216;2023-11-21T13:44:30;7.70;;;3.05;;
32032;SDS011;31720;52.638;9.216;2023-11-21T13:47:37;7.00;;;3.85;;
32032;SDS011;31720;52.638;9.216;2023-11-21T13:50:41;7.35;;;3.78;;
32032;SDS011;31720;52.638;9.216;2023-11-21T13:53:48;4.93;;;2.78;;
32032;SDS011;31720;52.638;9.216;2023-11-21T13:56:52;5.80;;;3.03;;
32032;SDS011;31720;52.638;9.216;2023-11-21T13:59:54;5.68;;;2.72;;
32032;SDS011;31720;52.638;9.216;2023-11-21T14:02:58;4.75;;;2.90;;
32032;SDS011;31720;52.638;9.216;2023-11-21T14:06:02;4.32;;;2.85;;
32032;SDS011;31720;52.638;9.216;2023-11-21T14:09:13;9.40;;;3.03;;
32032;SDS011;31720;52.638;9.216;2023-11-21T14:12:22;7.22;;;2.85;;
32032;SDS011;31720;52.638;9.216;2023-11-21T14:15:23;8.30;;;3.67;;
32032;SDS011;31720;52.638;9.216;2023-11-21T14:18:25;7.57;;;3.72;;
32032;SDS011;31720;52.638;9.216;2023-11-21T14:21:31;5.93;;;3.58;;
32032;SDS011;31720;52.638;9.216;2023-11-21T14:24:33;31.35;;;11.82;;
32032;SDS011;31720;52.638;9.216;2023-11-21T14:27:35;14.07;;;4.60;;
32032;SDS011;31720;52.638;9.216;2023-11-21T14:30:36;8.07;;;3.90;;
32032;SDS011;31720;52.638;9.216;2023-11-21T14:33:39;8.93;;;3.30;;
32032;SDS011;31720;52.638;9.216;2023-11-21T14:36:42;13.15;;;4.93;;
32032;SDS011;31720;52.638;9.216;2023-11-21T14:39:44;8.27;;;4.55;;
32032;SDS011;31720;52.638;9.216;2023-11-21T14:42:49;13.63;;;3.78;;
32032;SDS011;31720;52.638;9.216;2023-11-21T14:45:52;7.30;;;3.60;;
32032;SDS011;31720;52.638;9.216;2023-11-21T14:48:56;9.50;;;3.53;;
32032;SDS011;31720;52.638;9.216;2023-11-21T14:52:08;6.78;;;3.75;;
32032;SDS011;31720;52.638;9.216;2023-11-21T14:58:32;6.63;;;3.70;;
32032;SDS011;31720;52.638;9.216;2023-11-21T15:01:33;6.68;;;2.97;;
32032;SDS011;31720;52.638;9.216;2023-11-21T15:04:44;7.85;;;3.22;;
32032;SDS011;31720;52.638;9.216;2023-11-21T15:07:47;6.45;;;3.40;;
32032;SDS011;31720;52.638;9.216;2023-11-21T15:10:49;7.97;;;3.13;;
32032;SDS011;31720;52.638;9.216;2023-11-21T15:13:54;6.75;;;3.58;;
32032;SDS011;31720;52.638;9.216;2023-11-21T15:16:56;9.52;;;4.28;;
32032;SDS011;31720;52.638;9.216;2023-11-21T15:19:59;7.05;;;4.00;;
32032;SDS011;31720;52.638;9.216;2023-11-21T15:23:02;7.63;;;4.28;;
32032;SDS011;31720;52.638;9.216;2023-11-21T15:26:06;6.05;;;3.00;;
32032;SDS011;31720;52.638;9.216;2023-11-21T15:29:08;4.80;;;3.38;;
32032;SDS011;31720;52.638;9.216;2023-11-21T15:32:11;7.38;;;3.90;;
32032;SDS011;31720;52.638;9.216;2023-11-21T15:35:13;10.10;;;4.10;;
32032;SDS011;31720;52.638;9.216;2023-11-21T15:38:16;7.82;;;4.07;;
32032;SDS011;31720;52.638;9.216;2023-11-21T15:41:17;7.65;;;4.03;;
32032;SDS011;31720;52.638;9.216;2023-11-21T15:44:19;9.05;;;3.75;;
32032;SDS011;31720;52.638;9.216;2023-11-21T15:47:20;6.25;;;3.90;;
32032;SDS011;31720;52.638;9.216;2023-11-21T15:50:22;6.60;;;3.40;;
32032;SDS011;31720;52.638;9.216;2023-11-21T15:53:26;8.15;;;4.43;;
32032;SDS011;31720;52.638;9.216;2023-11-21T15:56:27;8.93;;;3.75;;
32032;SDS011;31720;52.638;9.216;2023-11-21T15:59:28;5.90;;;2.75;;
32032;SDS011;31720;52.638;9.216;2023-11-21T16:02:31;4.85;;;2.60;;
32032;SDS011;31720;52.638;9.216;2023-11-21T16:05:33;4.45;;;2.90;;
32032;SDS011;31720;52.638;9.216;2023-11-21T16:08:37;5.57;;;2.92;;
32032;SDS011;31720;52.638;9.216;2023-11-21T16:11:38;5.40;;;3.17;;
32032;SDS011;31720;52.638;9.216;2023-11-21T16:14:40;6.43;;;3.22;;
32032;SDS011;31720;52.638;9.216;2023-11-21T16:17:44;4.97;;;3.00;;
32032;SDS011;31720;52.638;9.216;2023-11-21T16:20:46;4.85;;;3.00;;
32032;SDS011;31720;52.638;9.216;2023-11-21T16:23:48;7.57;;;3.90;;
32032;SDS011;31720;52.638;9.216;2023-11-21T16:26:50;5.68;;;3.13;;
32032;SDS011;31720;52.638;9.216;2023-11-21T16:29:52;5.40;;;2.70;;
32032;SDS011;31720;52.638;9.216;2023-11-21T16:32:53;7.88;;;3.70;;
32032;SDS011;31720;52.638;9.216;2023-11-21T16:35:55;7.85;;;3.72;;
32032;SDS011;31720;52.638;9.216;2023-11-21T16:38:58;9.48;;;4.15;;
32032;SDS011;31720;52.638;9.216;2023-11-21T16:41:59;8.27;;;4.22;;
32032;SDS011;31720;52.638;9.216;2023-11-21T16:45:01;11.50;;;4.53;;
32032;SDS011;31720;52.638;9.216;2023-11-21T16:48:03;10.52;;;3.95;;
32032;SDS011;31720;52.638;9.216;2023-11-21T16:51:06;7.13;;;3.53;;
32032;SDS011;31720;52.638;9.216;2023-11-21T16:54:12;6.45;;;3.38;;
32032;SDS011;31720;52.638;9.216;2023-11-21T16:57:15;7.80;;;3.85;;
32032;SDS011;31720;52.638;9.216;2023-11-21T17:00:16;8.05;;;3.53;;
32032;SDS011;31720;52.638;9.216;2023-11-21T17:03:22;8.48;;;4.03;;
32032;SDS011;31720;52.638;9.216;2023-11-21T17:06:25;7.43;;;3.75;;
32032;SDS011;31720;52.638;9.216;2023-11-21T17:09:28;6.20;;;3.53;;
32032;SDS011;31720;52.638;9.216;2023-11-21T17:12:29;6.75;;;3.55;;
32032;SDS011;31720;52.638;9.216;2023-11-21T17:15:31;8.57;;;4.30;;
32032;SDS011;31720;52.638;9.216;2023-11-21T17:18:32;5.50;;;3.28;;
32032;SDS011;31720;52.638;9.216;2023-11-21T17:21:34;7.72;;;3.53;;
32032;SDS011;31720;52.638;9.216;2023-11-21T17:24:37;12.45;;;5.50;;
32032;SDS011;31720;52.638;9.216;2023-11-21T17:27:39;7.38;;;3.35;;
32032;SDS011;31720;52.638;9.216;2023-11-21T17:30:40;13.02;;;4.47;;
32032;SDS011;31720;52.638;9.216;2023-11-21T17:33:43;7.47;;;3.47;;
32032;SDS011;31720;52.638;9.216;2023-11-21T17:36:44;8.52;;;3.55;;
32032;SDS011;31720;52.638;9.216;2023-11-21T17:39:47;5.55;;;3.10;;
32032;SDS011;31720;52.638;9.216;2023-11-21T17:42:49;6.90;;;4.22;;
32032;SDS011;31720;52.638;9.216;2023-11-21T17:45:50;6.93;;;4.18;;
32032;SDS011;31720;52.638;9.216;2023-11-21T17:48:52;9.68;;;3.40;;
32032;SDS011;31720;52.638;9.216;2023-11-21T17:51:55;7.97;;;4.10;;
32032;SDS011;31720;52.638;9.216;2023-11-21T17:54:58;7.88;;;3.80;;
32032;SDS011;31720;52.638;9.216;2023-11-21T17:57:59;7.25;;;4.03;;
32032;SDS011;31720;52.638;9.216;2023-11-21T18:01:01;6.82;;;3.42;;
32032;SDS011;31720;52.638;9.216;2023-11-21T18:04:03;6.57;;;3.42;;
32032;SDS011;31720;52.638;9.216;2023-11-21T18:07:05;6.65;;;3.45;;
32032;SDS011;31720;52.638;9.216;2023-11-21T18:10:08;5.90;;;3.38;;
32032;SDS011;31720;52.638;9.216;2023-11-21T18:13:10;6.93;;;3.83;;
32032;SDS011;31720;52.638;9.216;2023-11-21T18:16:13;7.55;;;3.35;;
32032;SDS011;31720;52.638;9.216;2023-11-21T18:19:15;7.07;;;3.53;;